createdAt,value
2022-09-03T00:02:33.734Z,2.15
2022-09-03T00:05:19.145Z,3.78
2022-09-03T00:07:56.333Z,3.08
2022-09-03T00:10:47.314Z,2.45
2022-09-03T00:13:23.183Z,3.88
2022-09-03T00:15:55.248Z,2.45
2022-09-03T00:18:29.630Z,2.75
2022-09-03T00:21:15.117Z,2.75
2022-09-03T00:23:46.760Z,2.38
2022-09-03T00:26:26.085Z,3.10
2022-09-03T00:29:13.666Z,1.98
2022-09-03T00:31:47.865Z,2.83
2022-09-03T00:36:59.235Z,1.83
2022-09-03T00:39:28.053Z,2.15
2022-09-03T00:42:23.781Z,2.00
2022-09-03T00:45:18.745Z,2.75
2022-09-03T00:48:05.277Z,2.25
2022-09-03T00:50:49.886Z,4.55
2022-09-03T00:53:39.561Z,3.05
2022-09-03T00:56:35.473Z,3.25
2022-09-03T00:59:15.317Z,2.72
2022-09-03T01:01:55.649Z,2.45
2022-09-03T01:04:45.046Z,3.55
2022-09-03T01:07:40.913Z,2.67
2022-09-03T01:10:19.273Z,3.65
2022-09-03T01:13:00.512Z,3.22
2022-09-03T01:15:42.588Z,4.43
2022-09-03T01:18:34.845Z,5.07
2022-09-03T01:21:24.425Z,5.40
2022-09-03T01:24:23.817Z,3.20
2022-09-03T01:27:11.149Z,5.88
2022-09-03T01:29:54.115Z,5.75
2022-09-03T01:32:29.511Z,4.72
2022-09-03T01:35:19.912Z,4.40
2022-09-03T01:38:18.220Z,6.07
2022-09-03T01:41:24.470Z,4.00
2022-09-03T01:44:16.989Z,4.55
2022-09-03T01:46:51.093Z,3.75
2022-09-03T01:49:37.946Z,3.67
2022-09-03T01:52:16.241Z,5.72
2022-09-03T01:55:06.338Z,2.88
2022-09-03T01:57:47.822Z,3.88
2022-09-03T02:00:21.506Z,6.75
2022-09-03T02:02:51.682Z,4.25
2022-09-03T02:05:35.433Z,2.83
2022-09-03T02:08:06.908Z,2.42
2022-09-03T02:10:52.366Z,4.50
2022-09-03T02:13:25.956Z,4.25
2022-09-03T02:15:56.485Z,4.00
2022-09-03T02:18:31.269Z,3.03
2022-09-03T02:21:01.289Z,2.70
2022-09-03T02:23:29.936Z,4.18
2022-09-03T02:26:10.789Z,2.58
2022-09-03T02:28:38.661Z,3.40
2022-09-03T02:31:06.492Z,2.92
2022-09-03T02:33:38.578Z,2.85
2022-09-03T02:36:08.904Z,2.63
2022-09-03T02:38:36.796Z,2.75
2022-09-03T02:41:04.333Z,2.53
2022-09-03T02:43:46.260Z,3.10
2022-09-03T02:46:21.656Z,5.10
2022-09-03T02:48:49.528Z,2.63
2022-09-03T02:51:17.021Z,2.58
2022-09-03T02:53:46.196Z,3.20
2022-09-03T02:56:14.134Z,2.78
2022-09-03T02:58:41.605Z,2.63
2022-09-03T03:01:09.058Z,4.47
2022-09-03T03:03:36.623Z,2.22
2022-09-03T03:06:05.980Z,2.63
2022-09-03T03:08:35.297Z,3.65
2022-09-03T03:11:02.835Z,4.20
2022-09-03T03:13:31.606Z,2.40
2022-09-03T03:16:03.313Z,4.15
2022-09-03T03:18:31.092Z,4.28
2022-09-03T03:21:03.401Z,4.40
2022-09-03T03:23:32.922Z,2.40
2022-09-03T03:26:06.413Z,5.97
2022-09-03T03:28:35.442Z,2.58
2022-09-03T03:31:11.750Z,2.80
2022-09-03T03:33:40.208Z,5.78
2022-09-03T03:36:11.917Z,3.03
2022-09-03T03:38:40.788Z,4.93
2022-09-03T03:41:11.540Z,4.47
2022-09-03T03:43:39.429Z,3.17
2022-09-03T03:46:07.083Z,3.47
2022-09-03T03:48:34.784Z,3.22
2022-09-03T03:51:05.068Z,2.42
2022-09-03T03:53:35.156Z,4.25
2022-09-03T03:56:08.358Z,3.45
2022-09-03T04:01:09.038Z,2.80
2022-09-03T04:03:38.732Z,4.50
2022-09-03T04:06:07.060Z,4.55
2022-09-03T04:08:36.760Z,4.25
2022-09-03T04:11:06.123Z,4.55
2022-09-03T04:13:37.230Z,7.03
2022-09-03T04:16:08.766Z,4.40
2022-09-03T04:18:38.076Z,3.88
2022-09-03T04:21:09.732Z,4.15
2022-09-03T04:23:40.674Z,3.50
2022-09-03T04:26:12.510Z,3.13
2022-09-03T04:28:42.193Z,3.38
2022-09-03T04:31:12.007Z,3.53
2022-09-03T04:33:41.553Z,3.88
2022-09-03T04:36:11.722Z,5.28
2022-09-03T04:38:41.863Z,3.20
2022-09-03T04:41:12.197Z,2.70
2022-09-03T04:43:40.165Z,4.45
2022-09-03T04:46:16.083Z,4.05
2022-09-03T04:48:51.445Z,3.35
2022-09-03T04:51:22.197Z,3.95
2022-09-03T04:53:56.665Z,3.97
2022-09-03T04:56:29.848Z,5.93
2022-09-03T04:59:00.153Z,6.00
2022-09-03T05:01:37.236Z,5.00
2022-09-03T05:06:36.539Z,4.97
2022-09-03T05:09:06.000Z,4.32
2022-09-03T05:11:34.502Z,4.35
2022-09-03T05:14:03.774Z,3.67
2022-09-03T05:16:31.471Z,3.28
2022-09-03T05:19:01.493Z,3.08
2022-09-03T05:21:29.503Z,2.97
2022-09-03T05:23:57.711Z,2.88
2022-09-03T05:26:31.713Z,3.40
2022-09-03T05:29:01.465Z,4.43
2022-09-03T05:31:32.772Z,3.92
2022-09-03T05:34:03.661Z,4.85
2022-09-03T05:36:36.394Z,5.90
2022-09-03T05:39:05.134Z,3.65
2022-09-03T05:41:34.273Z,3.35
2022-09-03T05:44:02.440Z,4.07
2022-09-03T05:46:35.052Z,4.68
2022-09-03T05:49:07.768Z,3.92
2022-09-03T05:51:36.796Z,4.25
2022-09-03T05:54:04.304Z,2.25
2022-09-03T05:56:33.530Z,5.50
2022-09-03T05:59:03.206Z,4.25
2022-09-03T06:01:33.573Z,2.83
2022-09-03T06:04:04.356Z,5.25
2022-09-03T06:06:34.982Z,3.47
2022-09-03T06:09:07.871Z,4.30
2022-09-03T06:11:37.590Z,3.95
2022-09-03T06:14:09.441Z,3.40
2022-09-03T06:16:40.265Z,3.55
2022-09-03T06:19:09.863Z,5.70
2022-09-03T06:21:40.717Z,5.00
2022-09-03T06:24:09.201Z,4.68
2022-09-03T06:26:36.737Z,3.38
2022-09-03T06:29:07.206Z,2.10
2022-09-03T06:31:35.910Z,2.83
2022-09-03T06:34:04.388Z,3.38
2022-09-03T06:36:32.761Z,2.40
2022-09-03T06:39:00.196Z,3.42
2022-09-03T06:41:32.238Z,2.85
2022-09-03T06:44:03.533Z,1.65
2022-09-03T06:46:35.109Z,1.90
2022-09-03T06:49:02.794Z,1.73
2022-09-03T06:51:33.411Z,2.15
2022-09-03T06:54:04.877Z,2.90
2022-09-03T06:56:38.864Z,2.65
2022-09-03T06:59:10.415Z,2.35
2022-09-03T07:01:43.551Z,1.77
2022-09-03T07:04:16.374Z,3.22
2022-09-03T07:06:45.884Z,3.90
2022-09-03T07:09:15.613Z,1.75
2022-09-03T07:11:48.305Z,2.70
2022-09-03T07:14:18.865Z,2.58
2022-09-03T07:16:48.271Z,1.75
2022-09-03T07:19:16.527Z,1.30
2022-09-03T07:21:49.205Z,2.47
2022-09-03T07:24:20.072Z,2.05
2022-09-03T07:26:49.493Z,3.72
2022-09-03T07:29:20.943Z,1.23
2022-09-03T07:31:54.176Z,4.50
2022-09-03T07:34:25.630Z,2.47
2022-09-03T07:36:54.703Z,2.97
2022-09-03T07:39:24.429Z,1.75
2022-09-03T07:41:51.796Z,2.25
2022-09-03T07:44:20.171Z,1.80
2022-09-03T07:46:51.443Z,4.40
2022-09-03T07:49:21.260Z,2.10
2022-09-03T07:51:52.510Z,1.75
2022-09-03T07:54:24.284Z,2.53
2022-09-03T07:56:54.973Z,2.97
2022-09-03T07:59:24.022Z,3.43
2022-09-03T08:01:54.802Z,1.75
2022-09-03T08:04:24.914Z,3.65
2022-09-03T08:06:55.934Z,1.75
2022-09-03T08:09:23.534Z,2.50
2022-09-03T08:11:51.282Z,2.15
2022-09-03T08:14:19.368Z,1.90
2022-09-03T08:16:48.335Z,1.92
2022-09-03T08:19:18.668Z,2.65
2022-09-03T08:21:46.442Z,3.35
2022-09-03T08:24:16.789Z,2.83
2022-09-03T08:26:51.172Z,2.40
2022-09-03T08:29:19.863Z,3.38
2022-09-03T08:31:47.341Z,4.97
2022-09-03T08:34:19.760Z,3.35
2022-09-03T08:36:48.074Z,3.75
2022-09-03T08:39:18.812Z,1.60
2022-09-03T08:42:19.738Z,1.67
2022-09-03T08:44:56.378Z,0.82
2022-09-03T08:47:34.838Z,1.77
2022-09-03T08:50:25.475Z,2.03
2022-09-03T08:53:15.734Z,0.95
2022-09-03T08:56:00.466Z,3.50
2022-09-03T08:58:31.513Z,3.35
2022-09-03T09:01:32.003Z,1.10
2022-09-03T09:04:36.275Z,2.38
2022-09-03T09:07:27.670Z,1.55
2022-09-03T09:10:19.388Z,1.30
2022-09-03T09:13:04.576Z,2.15
2022-09-03T09:16:04.692Z,1.70
2022-09-03T09:19:00.781Z,1.90
2022-09-03T09:21:40.441Z,2.30
2022-09-03T09:24:22.162Z,1.48
2022-09-03T09:26:55.004Z,4.30
2022-09-03T09:29:22.454Z,1.27
2022-09-03T09:31:50.009Z,3.33
2022-09-03T09:34:17.316Z,1.75
2022-09-03T09:36:55.386Z,4.15
2022-09-03T09:39:23.941Z,2.90
2022-09-03T09:42:11.432Z,2.75
2022-09-03T09:44:41.655Z,2.47
2022-09-03T09:47:21.406Z,1.77
2022-09-03T09:49:59.994Z,1.88
2022-09-03T09:52:32.682Z,2.25
2022-09-03T09:55:10.886Z,2.00
2022-09-03T09:57:39.983Z,3.50
2022-09-03T10:00:16.065Z,2.75
2022-09-03T10:02:51.113Z,2.83
2022-09-03T10:05:28.447Z,1.17
2022-09-03T10:08:00.841Z,2.25
2022-09-03T10:13:09.659Z,2.25
2022-09-03T10:16:06.100Z,1.60
2022-09-03T10:18:53.196Z,1.48
2022-09-03T10:21:32.942Z,1.92
2022-09-03T10:24:16.044Z,1.35
2022-09-03T10:26:50.229Z,1.73
2022-09-03T10:29:25.698Z,2.03
2022-09-03T10:32:23.072Z,0.82
2022-09-03T10:35:21.470Z,1.88
2022-09-03T10:38:16.079Z,1.13
2022-09-03T10:41:11.278Z,1.10
2022-09-03T10:44:01.337Z,1.35
2022-09-03T10:46:36.799Z,4.20
2022-09-03T10:49:29.296Z,1.67
2022-09-03T10:52:12.629Z,3.45
2022-09-03T10:57:42.747Z,2.42
2022-09-03T11:00:13.330Z,5.40
2022-09-03T11:03:13.272Z,1.50
2022-09-03T11:05:54.249Z,2.40
2022-09-03T11:08:31.722Z,4.15
2022-09-03T11:11:22.160Z,2.72
2022-09-03T11:13:56.196Z,2.35
2022-09-03T11:16:34.431Z,1.92
2022-09-03T11:19:07.394Z,1.58
2022-09-03T11:21:45.513Z,1.50
2022-09-03T11:24:24.771Z,5.22
2022-09-03T11:27:15.118Z,1.90
2022-09-03T11:32:29.127Z,2.00
2022-09-03T11:35:04.886Z,1.25
2022-09-03T11:37:35.411Z,1.67
2022-09-03T11:40:17.010Z,2.13
2022-09-03T11:42:46.245Z,1.85
2022-09-03T11:45:39.727Z,3.60
2022-09-03T11:48:37.952Z,4.45
2022-09-03T11:51:33.994Z,2.92
2022-09-03T11:54:13.134Z,3.05
2022-09-03T11:56:42.496Z,2.45
2022-09-03T11:59:27.644Z,4.38
2022-09-03T12:02:17.297Z,2.20
2022-09-03T12:05:19.911Z,3.22
2022-09-03T12:08:13.280Z,3.70
2022-09-03T12:10:52.122Z,2.78
2022-09-03T12:13:48.475Z,2.08
2022-09-03T12:16:46.941Z,1.58
2022-09-03T12:19:35.345Z,2.40
2022-09-03T12:22:05.997Z,2.20
2022-09-03T12:24:38.461Z,1.50
2022-09-03T12:29:40.050Z,2.00
2022-09-03T12:32:11.732Z,2.33
2022-09-03T12:34:42.198Z,1.05
2022-09-03T12:40:21.736Z,5.95
2022-09-03T12:42:51.476Z,2.63
2022-09-03T12:45:24.245Z,1.77
2022-09-03T12:47:53.625Z,3.78
2022-09-03T12:53:03.299Z,1.90
2022-09-03T12:55:40.553Z,3.10
2022-09-03T12:58:21.267Z,1.40
2022-09-03T13:00:59.053Z,2.30
2022-09-03T13:03:49.792Z,3.38
2022-09-03T13:06:31.207Z,3.03
2022-09-03T13:09:02.534Z,2.70
2022-09-03T13:11:41.713Z,1.02
2022-09-03T13:14:18.758Z,4.30
2022-09-03T13:17:02.649Z,1.70
2022-09-03T13:19:57.920Z,3.40
2022-09-03T13:22:57.278Z,0.70
2022-09-03T13:25:50.417Z,1.55
2022-09-03T13:28:48.334Z,2.80
2022-09-03T13:31:47.441Z,1.60
2022-09-03T13:34:29.119Z,2.15
2022-09-03T13:37:17.553Z,2.15
2022-09-03T13:40:00.474Z,1.42
2022-09-03T13:42:45.505Z,1.98
2022-09-03T13:45:36.511Z,1.42
2022-09-03T13:48:51.563Z,3.20
2022-09-03T13:51:33.867Z,2.60
2022-09-03T13:54:48.079Z,4.33
2022-09-03T13:57:41.557Z,4.45
2022-09-03T14:00:16.598Z,2.40
2022-09-03T14:03:10.734Z,2.30
2022-09-03T14:06:05.804Z,4.32
2022-09-03T14:09:19.111Z,4.15
2022-09-03T14:12:10.832Z,1.23
2022-09-03T14:14:52.281Z,3.10
2022-09-03T14:17:54.071Z,1.65
2022-09-03T14:20:30.193Z,2.58
2022-09-03T14:23:28.026Z,3.97
2022-09-03T14:25:58.046Z,6.35
2022-09-03T14:28:40.783Z,2.42
2022-09-03T14:31:27.155Z,1.90
2022-09-03T14:34:27.882Z,3.67
2022-09-03T14:37:23.353Z,3.58
2022-09-03T14:39:56.812Z,4.47
2022-09-03T14:42:47.966Z,2.67
2022-09-03T14:45:39.847Z,1.83
2022-09-03T14:48:27.613Z,3.50
2022-09-03T14:51:27.954Z,3.30
2022-09-03T14:54:23.074Z,2.00
2022-09-03T14:57:02.599Z,5.90
2022-09-03T15:00:03.206Z,3.67
2022-09-03T15:02:53.359Z,4.45
2022-09-03T15:05:52.544Z,6.10
2022-09-03T15:08:43.345Z,4.57
2022-09-03T15:11:22.945Z,2.65
2022-09-03T15:14:05.961Z,4.53
2022-09-03T15:16:56.356Z,2.08
2022-09-03T15:19:54.526Z,3.60
2022-09-03T15:22:38.029Z,3.70
2022-09-03T15:28:19.038Z,2.33
2022-09-03T15:31:01.901Z,2.22
2022-09-03T15:33:37.246Z,3.17
2022-09-03T15:36:23.318Z,3.15
2022-09-03T15:39:04.827Z,2.20
2022-09-03T15:42:06.518Z,2.35
2022-09-03T15:44:52.403Z,2.80
2022-09-03T15:47:51.073Z,1.85
2022-09-03T15:50:40.793Z,4.10
2022-09-03T15:53:34.300Z,3.70
2022-09-03T15:56:18.602Z,6.68
2022-09-03T15:58:59.954Z,5.88
2022-09-03T16:01:48.598Z,8.82
2022-09-03T16:04:36.287Z,10.52
2022-09-03T16:07:18.926Z,9.43
2022-09-03T16:10:23.271Z,5.28
2022-09-03T16:13:07.882Z,6.07
2022-09-03T16:15:43.869Z,6.97
2022-09-03T16:18:33.425Z,10.05
2022-09-03T16:21:23.869Z,6.53
2022-09-03T16:24:10.956Z,9.57
2022-09-03T16:26:52.242Z,13.38
2022-09-03T16:29:28.381Z,10.77
2022-09-03T16:32:22.141Z,9.95
2022-09-03T16:35:03.501Z,12.52
2022-09-03T16:37:57.790Z,12.20
2022-09-03T16:40:41.007Z,12.15
2022-09-03T16:43:40.800Z,13.07
2022-09-03T16:46:33.305Z,9.35
2022-09-03T16:49:27.295Z,8.05
2022-09-03T16:52:12.099Z,6.88
2022-09-03T16:55:00.455Z,10.30
2022-09-03T16:57:59.299Z,7.32
2022-09-03T17:00:49.381Z,8.57
2022-09-03T17:03:48.313Z,7.40
2022-09-03T17:06:43.532Z,6.90
2022-09-03T17:09:50.885Z,7.18
2022-09-03T17:12:40.752Z,8.80
2022-09-03T17:15:34.938Z,13.25
2022-09-03T17:18:31.410Z,6.57
2022-09-03T17:21:19.521Z,9.35
2022-09-03T17:24:04.226Z,7.80
2022-09-03T17:27:04.206Z,10.02
2022-09-03T17:29:56.506Z,51.80
2022-09-03T17:33:03.965Z,9.02
2022-09-03T17:36:05.874Z,14.07
2022-09-03T17:39:00.776Z,10.45
2022-09-03T17:41:46.191Z,10.82
2022-09-03T17:44:48.932Z,13.25
2022-09-03T17:47:42.516Z,12.10
2022-09-03T17:50:26.054Z,12.20
2022-09-03T17:53:03.057Z,10.57
2022-09-03T17:55:42.531Z,12.55
2022-09-03T17:58:31.638Z,10.57
2022-09-03T18:01:13.471Z,11.63
2022-09-03T18:04:05.445Z,8.52
2022-09-03T18:06:53.688Z,11.93
2022-09-03T18:09:49.176Z,13.70
2022-09-03T18:13:03.507Z,11.63
2022-09-03T18:15:48.692Z,11.18
2022-09-03T18:18:33.098Z,10.27
2022-09-03T18:21:26.607Z,6.97
2022-09-03T18:24:21.096Z,8.90
2022-09-03T18:27:20.792Z,6.45
2022-09-03T18:30:16.983Z,8.32
2022-09-03T18:32:59.959Z,14.38
2022-09-03T18:35:47.126Z,11.82
2022-09-03T18:38:31.162Z,7.43
2022-09-03T18:41:32.446Z,5.25
2022-09-03T18:44:40.378Z,7.35
2022-09-03T18:48:05.543Z,7.43
2022-09-03T18:51:04.078Z,10.13
2022-09-03T18:54:15.637Z,7.88
2022-09-03T18:57:04.000Z,10.68
2022-09-03T19:00:17.591Z,9.93
2022-09-03T19:03:35.493Z,8.48
2022-09-03T19:06:53.502Z,10.80
2022-09-03T19:10:14.850Z,9.90
2022-09-03T19:13:22.075Z,8.85
2022-09-03T19:16:25.777Z,8.55
2022-09-03T19:19:43.628Z,10.13
2022-09-03T19:22:39.523Z,8.77
2022-09-03T19:25:28.044Z,9.10
2022-09-03T19:28:25.382Z,11.15
2022-09-03T19:31:39.219Z,13.40
2022-09-03T19:34:41.521Z,8.88
2022-09-03T19:37:37.565Z,11.98
2022-09-03T19:40:47.195Z,10.85
2022-09-03T19:43:57.817Z,11.65
2022-09-03T19:47:01.551Z,11.48
2022-09-03T19:50:14.590Z,10.98
2022-09-03T19:53:06.566Z,12.32
2022-09-03T19:56:05.176Z,10.20
2022-09-03T19:59:04.238Z,9.77
2022-09-03T20:01:53.218Z,12.48
2022-09-03T20:04:45.190Z,19.02
2022-09-03T20:07:30.088Z,11.13
2022-09-03T20:10:16.448Z,11.73
2022-09-03T20:12:48.630Z,14.27
2022-09-03T20:15:16.637Z,11.70
2022-09-03T20:18:09.097Z,9.40
2022-09-03T20:20:50.142Z,9.98
2022-09-03T20:23:41.550Z,10.98
2022-09-03T20:26:21.071Z,10.80
2022-09-03T20:29:25.634Z,12.15
2022-09-03T20:32:00.449Z,10.50
2022-09-03T20:34:58.309Z,11.95
2022-09-03T20:37:34.121Z,11.07
2022-09-03T20:40:28.961Z,11.52
2022-09-03T20:43:20.572Z,12.75
2022-09-03T20:46:18.896Z,9.40
2022-09-03T20:48:54.052Z,11.40
2022-09-03T20:51:35.034Z,11.18
2022-09-03T20:54:09.938Z,11.40
2022-09-03T20:56:53.515Z,8.63
2022-09-03T20:59:29.730Z,8.30
2022-09-03T21:02:02.320Z,10.18
2022-09-03T21:04:40.159Z,8.80
2022-09-03T21:07:27.426Z,11.00
2022-09-03T21:10:12.781Z,9.93
2022-09-03T21:12:56.111Z,13.95
2022-09-03T21:15:37.456Z,17.05
2022-09-03T21:18:29.548Z,11.73
2022-09-03T21:21:31.819Z,10.77
2022-09-03T21:24:07.601Z,14.90
2022-09-03T21:26:41.926Z,8.15
2022-09-03T21:29:12.855Z,11.35
2022-09-03T21:31:55.565Z,10.85
2022-09-03T21:34:30.494Z,12.30
2022-09-03T21:37:00.006Z,12.32
2022-09-03T21:39:32.047Z,12.38
2022-09-03T21:42:30.018Z,14.40
2022-09-03T21:45:07.835Z,9.02
2022-09-03T21:47:40.013Z,9.73
2022-09-03T21:50:25.804Z,13.13
2022-09-03T21:53:04.155Z,9.60
2022-09-03T21:55:40.117Z,12.18
2022-09-03T21:58:22.754Z,14.38
2022-09-03T22:00:52.843Z,10.00
2022-09-03T22:03:20.785Z,10.60
2022-09-03T22:05:54.115Z,10.85
2022-09-03T22:08:32.049Z,11.73
2022-09-03T22:11:21.522Z,13.13
2022-09-03T22:14:02.751Z,9.52
2022-09-03T22:16:38.597Z,9.23
2022-09-03T22:19:07.954Z,10.25
2022-09-03T22:21:45.925Z,9.63
2022-09-03T22:24:23.316Z,11.35
2022-09-03T22:27:06.725Z,10.63
2022-09-03T22:29:54.422Z,9.43
2022-09-03T22:32:28.025Z,9.80
2022-09-03T22:35:16.175Z,10.98
2022-09-03T22:37:55.938Z,8.35
2022-09-03T22:40:26.750Z,12.88
2022-09-03T22:43:01.321Z,9.13
2022-09-03T22:45:37.322Z,8.23
2022-09-03T22:48:17.149Z,8.43
2022-09-03T22:51:00.210Z,7.47
2022-09-03T22:53:42.196Z,10.25
2022-09-03T22:56:11.994Z,6.93
2022-09-03T22:58:45.225Z,8.45
2022-09-03T23:03:56.037Z,4.60
2022-09-03T23:06:32.637Z,6.28
2022-09-03T23:09:03.636Z,4.25
2022-09-03T23:11:35.559Z,3.17
2022-09-03T23:14:08.411Z,4.35
2022-09-03T23:16:56.213Z,3.10
2022-09-03T23:19:38.993Z,5.28
2022-09-03T23:22:10.749Z,4.57
2022-09-03T23:24:41.359Z,5.38
2022-09-03T23:27:18.233Z,4.05
2022-09-03T23:29:49.640Z,4.43
2022-09-03T23:32:17.862Z,3.50
2022-09-03T23:34:45.733Z,4.93
2022-09-03T23:37:33.509Z,5.53
2022-09-03T23:40:22.389Z,11.20
2022-09-03T23:43:00.449Z,5.13
2022-09-03T23:45:44.272Z,4.20
2022-09-03T23:48:23.954Z,4.63
2022-09-03T23:51:01.809Z,5.85
2022-09-03T23:53:38.381Z,5.93
2022-09-03T23:56:21.296Z,6.40
2022-09-03T23:59:04.474Z,5.07
